createdAt,value
2022-10-04T00:01:50.911Z,8.90
2022-10-04T00:05:56.591Z,8.90
2022-10-04T00:10:18.395Z,8.80
2022-10-04T00:14:28.989Z,8.90
2022-10-04T00:18:37.575Z,8.80
2022-10-04T00:23:31.252Z,8.70
2022-10-04T00:27:34.152Z,8.50
2022-10-04T00:32:07.897Z,8.50
2022-10-04T00:36:24.988Z,8.10
2022-10-04T00:40:39.911Z,8.50
2022-10-04T00:44:49.292Z,8.40
2022-10-04T00:48:58.112Z,8.50
2022-10-04T00:53:01.790Z,8.60
2022-10-04T00:57:10.445Z,8.60
2022-10-04T01:01:12.447Z,8.60
2022-10-04T01:05:36.518Z,8.60
2022-10-04T01:09:47.244Z,8.40
2022-10-04T01:13:56.471Z,8.40
2022-10-04T01:18:16.783Z,8.20
2022-10-04T01:22:36.471Z,8.20
2022-10-04T01:26:43.214Z,8.00
2022-10-04T01:30:45.272Z,8.20
2022-10-04T01:34:47.217Z,8.60
2022-10-04T01:38:50.550Z,8.20
2022-10-04T01:42:57.588Z,7.90
2022-10-04T01:47:04.087Z,7.80
2022-10-04T01:51:14.496Z,7.70
2022-10-04T01:55:21.287Z,7.50
2022-10-04T01:59:40.686Z,7.50
2022-10-04T02:03:57.070Z,7.20
2022-10-04T02:08:04.596Z,7.20
2022-10-04T02:12:07.152Z,7.40
2022-10-04T02:16:12.016Z,7.80
2022-10-04T02:20:19.958Z,7.50
2022-10-04T02:24:22.120Z,8.20
2022-10-04T02:28:24.092Z,7.80
2022-10-04T02:32:44.373Z,7.70
2022-10-04T02:36:51.825Z,7.60
2022-10-04T02:40:57.269Z,7.40
2022-10-04T02:45:33.521Z,7.40
2022-10-04T02:49:42.032Z,7.80
2022-10-04T02:53:51.619Z,7.80
2022-10-04T02:57:54.242Z,7.30
2022-10-04T03:01:58.805Z,7.80
2022-10-04T03:06:15.735Z,7.90
2022-10-04T03:10:17.677Z,8.00
2022-10-04T03:14:25.994Z,7.80
2022-10-04T03:18:29.004Z,7.80
2022-10-04T03:22:31.076Z,7.80
2022-10-04T03:26:36.595Z,7.80
2022-10-04T03:30:44.131Z,8.00
2022-10-04T03:35:08.007Z,7.90
2022-10-04T03:39:11.656Z,7.70
2022-10-04T03:43:14.690Z,7.80
2022-10-04T03:47:48.718Z,7.70
2022-10-04T03:51:52.217Z,7.70
2022-10-04T03:55:54.278Z,7.90
2022-10-04T03:59:58.146Z,8.10
2022-10-04T04:04:22.237Z,8.10
2022-10-04T04:08:36.103Z,8.10
2022-10-04T04:12:49.593Z,8.50
2022-10-04T04:16:53.224Z,8.30
2022-10-04T04:20:59.461Z,8.10
2022-10-04T04:25:04.942Z,8.30
2022-10-04T04:29:30.252Z,8.30
2022-10-04T04:33:41.628Z,8.10
2022-10-04T04:37:43.461Z,8.20
2022-10-04T04:41:50.236Z,8.40
2022-10-04T04:46:14.967Z,8.50
2022-10-04T04:50:26.276Z,8.50
2022-10-04T04:54:28.588Z,8.60
2022-10-04T04:58:39.357Z,8.50
2022-10-04T05:02:56.154Z,8.30
2022-10-04T05:07:03.827Z,8.50
2022-10-04T05:11:16.572Z,8.50
2022-10-04T05:15:19.559Z,8.40
2022-10-04T05:19:32.212Z,8.40
2022-10-04T05:23:34.840Z,8.40
2022-10-04T05:27:45.218Z,8.40
2022-10-04T05:32:10.225Z,8.30
2022-10-04T05:36:12.433Z,8.30
2022-10-04T05:40:23.708Z,8.70
2022-10-04T05:44:27.597Z,8.30
2022-10-04T05:48:30.241Z,8.50
2022-10-04T05:52:36.331Z,8.60
2022-10-04T05:56:38.129Z,8.30
2022-10-04T06:00:56.251Z,8.30
2022-10-04T06:05:17.706Z,8.40
2022-10-04T06:09:40.761Z,8.40
2022-10-04T06:14:02.351Z,8.30
2022-10-04T06:18:28.212Z,8.50
2022-10-04T06:22:31.646Z,8.60
2022-10-04T06:26:45.945Z,8.60
2022-10-04T06:31:12.695Z,8.20
2022-10-04T06:35:34.020Z,8.50
2022-10-04T06:39:38.767Z,8.80
2022-10-04T06:43:57.365Z,8.70
2022-10-04T06:48:40.290Z,9.10
2022-10-04T06:53:06.505Z,9.30
2022-10-04T06:57:20.159Z,9.40
2022-10-04T07:01:24.760Z,9.40
2022-10-04T07:05:42.450Z,9.40
2022-10-04T07:09:45.807Z,9.60
2022-10-04T07:14:10.667Z,9.60
2022-10-04T07:18:22.183Z,9.70
2022-10-04T07:22:33.795Z,9.70
2022-10-04T07:26:50.437Z,10.30
2022-10-04T07:31:03.721Z,10.00
2022-10-04T07:35:14.771Z,10.10
2022-10-04T07:39:40.557Z,10.20
2022-10-04T07:43:54.473Z,10.50
2022-10-04T07:48:04.631Z,10.50
2022-10-04T07:52:25.121Z,10.60
2022-10-04T07:56:32.888Z,10.70
2022-10-04T08:00:43.333Z,10.60
2022-10-04T08:04:51.284Z,10.60
2022-10-04T08:09:04.799Z,10.80
2022-10-04T08:13:27.914Z,10.80
2022-10-04T08:17:50.335Z,11.20
2022-10-04T08:22:05.709Z,11.60
2022-10-04T08:26:25.671Z,12.00
2022-10-04T08:30:30.878Z,12.00
2022-10-04T08:34:53.232Z,11.80
2022-10-04T08:38:59.446Z,12.00
2022-10-04T08:43:20.222Z,12.60
2022-10-04T08:47:22.315Z,13.10
2022-10-04T08:51:41.221Z,13.40
2022-10-04T08:56:01.270Z,14.00
2022-10-04T09:00:21.243Z,15.10
2022-10-04T09:04:47.608Z,15.40
2022-10-04T09:09:07.729Z,15.10
2022-10-04T09:13:30.426Z,15.50
2022-10-04T09:17:53.177Z,16.10
2022-10-04T09:22:28.956Z,16.40
2022-10-04T09:26:47.741Z,17.30
2022-10-04T09:31:27.986Z,17.70
2022-10-04T09:35:47.900Z,17.30
2022-10-04T09:39:55.954Z,16.70
2022-10-04T09:44:26.717Z,17.30
2022-10-04T09:48:53.606Z,17.90
2022-10-04T09:53:17.007Z,17.60
2022-10-04T09:57:43.807Z,17.60
2022-10-04T10:02:00.687Z,18.20
2022-10-04T10:06:12.269Z,18.10
2022-10-04T10:10:38.544Z,17.70
2022-10-04T10:15:01.110Z,17.30
2022-10-04T10:19:28.186Z,16.90
2022-10-04T10:24:04.471Z,16.50
2022-10-04T10:28:43.152Z,15.90
2022-10-04T10:33:15.488Z,15.60
2022-10-04T10:37:36.103Z,15.50
2022-10-04T10:41:55.045Z,15.90
2022-10-04T10:46:16.569Z,16.50
2022-10-04T10:50:58.615Z,16.90
2022-10-04T10:55:27.008Z,17.50
2022-10-04T11:00:01.584Z,18.50
2022-10-04T11:04:28.167Z,18.60
2022-10-04T11:08:51.775Z,19.10
2022-10-04T11:13:31.082Z,19.60
2022-10-04T11:17:53.418Z,19.60
2022-10-04T11:21:55.298Z,19.70
2022-10-04T11:26:38.466Z,20.70
2022-10-04T11:31:01.650Z,21.50
2022-10-04T11:35:37.381Z,22.20
2022-10-04T11:39:54.315Z,22.40
2022-10-04T11:44:34.213Z,22.70
2022-10-04T11:48:53.965Z,22.60
2022-10-04T11:53:30.055Z,22.80
2022-10-04T11:58:14.658Z,23.40
2022-10-04T12:02:29.184Z,23.30
2022-10-04T12:07:08.472Z,23.00
2022-10-04T12:11:23.408Z,22.80
2022-10-04T12:15:56.213Z,22.60
2022-10-04T12:20:15.939Z,22.60
2022-10-04T12:24:36.236Z,22.60
2022-10-04T12:28:56.192Z,22.90
2022-10-04T12:33:21.336Z,22.80
2022-10-04T12:38:02.085Z,22.70
2022-10-04T12:42:15.741Z,22.80
2022-10-04T12:46:45.639Z,22.60
2022-10-04T12:51:00.203Z,22.40
2022-10-04T12:55:41.036Z,22.20
2022-10-04T13:00:07.240Z,22.00
2022-10-04T13:04:40.529Z,21.60
2022-10-04T13:09:04.586Z,21.70
2022-10-04T13:13:35.113Z,21.50
2022-10-04T13:17:52.857Z,21.50
2022-10-04T13:22:37.587Z,21.50
2022-10-04T13:27:01.891Z,21.70
2022-10-04T13:31:11.671Z,21.70
2022-10-04T13:35:37.018Z,21.70
2022-10-04T13:39:55.792Z,21.70
2022-10-04T13:44:30.199Z,21.50
2022-10-04T13:48:44.521Z,21.40
2022-10-04T13:53:23.800Z,21.40
2022-10-04T13:57:43.195Z,21.50
2022-10-04T14:01:45.249Z,21.40
2022-10-04T14:05:55.824Z,21.40
2022-10-04T14:10:35.144Z,21.20
2022-10-04T14:14:36.934Z,21.20
2022-10-04T14:19:03.921Z,21.20
2022-10-04T14:23:39.764Z,21.10
2022-10-04T14:27:59.731Z,21.00
2022-10-04T14:32:40.383Z,21.80
2022-10-04T14:36:55.994Z,20.90
2022-10-04T14:41:28.220Z,20.80
2022-10-04T14:45:38.670Z,20.60
2022-10-04T14:50:17.984Z,20.40
2022-10-04T14:54:22.861Z,20.60
2022-10-04T14:58:43.107Z,20.50
2022-10-04T15:03:06.827Z,20.50
2022-10-04T15:07:36.905Z,20.50
2022-10-04T15:12:40.859Z,20.20
2022-10-04T15:16:56.847Z,20.00
2022-10-04T15:21:01.303Z,20.10
2022-10-04T15:25:41.632Z,20.20
2022-10-04T15:30:04.102Z,20.10
2022-10-04T15:34:25.411Z,19.70
2022-10-04T15:38:39.657Z,19.30
2022-10-04T15:43:15.383Z,19.30
2022-10-04T15:47:45.931Z,19.30
2022-10-04T15:52:12.021Z,19.20
2022-10-04T15:56:55.700Z,19.10
2022-10-04T16:01:16.032Z,18.50
2022-10-04T16:05:41.778Z,17.80
2022-10-04T16:09:58.111Z,17.30
2022-10-04T16:14:54.118Z,17.10
2022-10-04T16:19:03.233Z,16.80
2022-10-04T16:23:28.428Z,16.50
2022-10-04T16:27:48.086Z,16.20
2022-10-04T16:31:58.845Z,15.80
2022-10-04T16:36:10.140Z,15.70
2022-10-04T16:40:32.852Z,15.50
2022-10-04T16:44:49.423Z,15.20
2022-10-04T16:49:02.346Z,15.00
2022-10-04T16:53:47.673Z,14.60
2022-10-04T16:58:27.808Z,14.30
2022-10-04T17:03:03.055Z,14.00
2022-10-04T17:07:13.612Z,13.90
2022-10-04T17:11:50.638Z,13.90
2022-10-04T17:16:01.375Z,13.80
2022-10-04T17:20:31.031Z,13.50
2022-10-04T17:24:35.575Z,13.40
2022-10-04T17:28:56.457Z,13.30
2022-10-04T17:33:15.182Z,13.20
2022-10-04T17:37:24.775Z,13.20
2022-10-04T17:41:50.988Z,13.10
2022-10-04T17:46:04.698Z,13.00
2022-10-04T17:50:33.979Z,12.70
2022-10-04T17:54:57.173Z,12.60
2022-10-04T17:58:59.548Z,12.60
2022-10-04T18:03:18.766Z,12.50
2022-10-04T18:07:25.922Z,12.30
2022-10-04T18:11:47.377Z,12.10
2022-10-04T18:15:57.919Z,11.90
2022-10-04T18:20:17.745Z,11.90
2022-10-04T18:24:28.750Z,11.80
2022-10-04T18:28:34.791Z,11.80
2022-10-04T18:32:38.035Z,11.70
2022-10-04T18:36:52.003Z,11.60
2022-10-04T18:40:58.091Z,11.40
2022-10-04T18:45:02.635Z,11.30
2022-10-04T18:49:25.576Z,11.40
2022-10-04T18:53:51.239Z,11.30
2022-10-04T18:58:43.804Z,11.20
2022-10-04T19:02:54.765Z,11.30
2022-10-04T19:07:04.495Z,11.10
2022-10-04T19:11:19.164Z,10.90
2022-10-04T19:15:24.176Z,10.60
2022-10-04T19:19:53.615Z,10.70
2022-10-04T19:24:28.376Z,10.70
2022-10-04T19:28:33.139Z,10.80
2022-10-04T19:32:53.904Z,11.10
2022-10-04T19:36:55.682Z,11.00
2022-10-04T19:41:03.526Z,10.70
2022-10-04T19:45:06.183Z,10.40
2022-10-04T19:49:43.022Z,10.30
2022-10-04T19:53:45.735Z,10.40
2022-10-04T19:58:08.939Z,10.60
2022-10-04T20:02:12.168Z,10.30
2022-10-04T20:06:26.211Z,10.50
2022-10-04T20:10:38.671Z,10.30
2022-10-04T20:14:40.690Z,10.20
2022-10-04T20:18:42.526Z,10.10
2022-10-04T20:22:50.305Z,10.30
2022-10-04T20:26:54.056Z,10.50
2022-10-04T20:31:00.972Z,10.20
2022-10-04T20:35:06.017Z,10.00
2022-10-04T20:39:27.801Z,10.00
2022-10-04T20:43:29.714Z,9.90
2022-10-04T20:47:49.638Z,9.60
2022-10-04T20:51:51.508Z,9.80
2022-10-04T20:56:09.412Z,9.90
2022-10-04T21:00:19.510Z,10.00
2022-10-04T21:04:50.351Z,9.80
2022-10-04T21:08:52.209Z,9.70
2022-10-04T21:12:54.128Z,9.80
2022-10-04T21:17:02.248Z,10.10
2022-10-04T21:21:04.699Z,9.90
2022-10-04T21:25:28.184Z,10.10
2022-10-04T21:29:30.004Z,10.10
2022-10-04T21:33:32.084Z,10.10
2022-10-04T21:37:34.954Z,9.90
2022-10-04T21:41:36.935Z,9.80
2022-10-04T21:45:38.817Z,9.70
2022-10-04T21:49:41.256Z,9.70
2022-10-04T21:53:43.108Z,9.60
2022-10-04T21:57:44.959Z,9.60
2022-10-04T22:01:47.220Z,9.40
2022-10-04T22:05:49.119Z,9.40
2022-10-04T22:09:51.337Z,9.40
2022-10-04T22:13:53.191Z,9.40
2022-10-04T22:17:55.758Z,9.40
2022-10-04T22:21:57.909Z,9.50
2022-10-04T22:25:59.713Z,9.60
2022-10-04T22:30:01.911Z,9.40
2022-10-04T22:34:05.244Z,9.30
2022-10-04T22:38:09.247Z,9.40
2022-10-04T22:42:13.712Z,9.70
2022-10-04T22:46:20.087Z,9.10
2022-10-04T22:50:36.297Z,9.30
2022-10-04T22:54:41.110Z,8.80
2022-10-04T22:58:43.051Z,8.80
2022-10-04T23:02:45.068Z,8.70
2022-10-04T23:06:47.374Z,8.60
2022-10-04T23:10:57.023Z,8.70
2022-10-04T23:14:58.867Z,8.90
2022-10-04T23:19:13.478Z,9.00
2022-10-04T23:23:21.601Z,8.70
2022-10-04T23:27:24.176Z,8.70
2022-10-04T23:31:27.440Z,8.60
2022-10-04T23:35:33.793Z,8.60
2022-10-04T23:39:36.122Z,8.50
2022-10-04T23:43:38.438Z,8.40
2022-10-04T23:47:40.349Z,8.40
2022-10-04T23:51:43.337Z,8.40
2022-10-04T23:55:46.075Z,8.20
2022-10-04T23:59:48.185Z,8.10
